WetterOnline ( https://www.wetteronline.de )

Wetter aktuell Lausche

Aktuelles Wetter: Lichtenhain/Mittelndorf (352m)

6-stündlich | Neueste Meldungen
Ortszeit Temperatur Wetter
Mo, 27.03. 8:00 0.4° C bedeckt
Mo, 27.03. 2:00 4.6° C leichter Regen
So, 26.03. 20:00 5.9° C leichter Regen
So, 26.03. 14:00 10.4° C wolkig
So, 26.03. 8:00 6.6° C bedeckt
So, 26.03. 1:00 7.5° C bedeckt
Sa, 25.03. 19:00 7.9° C bedeckt
Sa, 25.03. 13:00 10.4° C bewölkt
Ortszeit Temperatur Wetter
Mo, 27.03. 12:00 1.8° C bewölkt
Mo, 27.03. 11:50 1.8° C bewölkt
Mo, 27.03. 11:40 1.6° C bedeckt
Mo, 27.03. 11:30 1.1° C wolkig
Mo, 27.03. 11:20 1.1° C wolkig
Mo, 27.03. 11:10 1.0° C bewölkt
Mo, 27.03. 11:00 0.5° C bewölkt
Mo, 27.03. 10:30 0.4° C bedeckt
Mo, 27.03. 10:00 0.3° C bewölkt
Mo, 27.03. 9:30 0.2° C bewölkt
Mo, 27.03. 9:00 0.1° C bedeckt
Ortszeit Relative Feuchte Sichtweite
Mo, 27.03. 8:00 90% 40 km
Mo, 27.03. 2:00 96% 24 km
So, 26.03. 20:00 95% 11 km
So, 26.03. 14:00 60% 50 km
So, 26.03. 8:00 81% >70 km
So, 26.03. 1:00 73% 65 km
Sa, 25.03. 19:00 66% >70 km
Sa, 25.03. 13:00 63% >70 km
Ortszeit Relative Feuchte Sichtweite
Mo, 27.03. 12:00 74% 60 km
Mo, 27.03. 11:50 74% -
Mo, 27.03. 11:40 77% -
Mo, 27.03. 11:30 77% 65 km
Mo, 27.03. 11:20 77% -
Mo, 27.03. 11:10 79% -
Mo, 27.03. 11:00 74% >70 km
Mo, 27.03. 10:30 80% 60 km
Mo, 27.03. 10:00 85% 45 km
Mo, 27.03. 9:30 87% 50 km
Mo, 27.03. 9:00 84% 65 km
Ortszeit Niederschlagsmenge Niederschlagsart
Mo, 27.03. 8:00 5 l/m2 in 12 Std. Schnee, Regen
Mo, 27.03. 2:00 2 l/m2 in 6 Std. Regen
So, 26.03. 20:00 6 l/m2 in 12 Std. Regen
So, 26.03. 14:00 0.0 l/m2 in 6 Std. -
So, 26.03. 8:00 0.2 l/m2 in 12 Std. Regen
So, 26.03. 1:00 0.1 l/m2 in 6 Std. Regen
Sa, 25.03. 19:00 1 l/m2 in 12 Std. Regen
Sa, 25.03. 13:00 1 l/m2 in 6 Std. Regen
Ortszeit Niederschlagsmenge Niederschlagsart
Mo, 27.03. 12:00 <0.05 l/m2 in 1 Std. Schnee, Sprühregen
Mo, 27.03. 11:50 keine Meldung -
Mo, 27.03. 11:40 keine Meldung -
Mo, 27.03. 11:30 0.0 l/m2 in 30 Min -
Mo, 27.03. 11:20 keine Meldung -
Mo, 27.03. 11:10 keine Meldung -
Mo, 27.03. 11:00 0.0 l/m2 in 1 Std. -
Mo, 27.03. 10:30 0.0 l/m2 in 30 Min -
Mo, 27.03. 10:00 0.0 l/m2 in 1 Std. -
Mo, 27.03. 9:30 0.0 l/m2 in 30 Min -
Mo, 27.03. 9:00 0.0 l/m2 in 1 Std. -
Ortszeit Stärke Spitze Richtung
km/h Bft. km/h Grad Sektor
Mo, 27.03. 8:00 18 3 47 340° N
Mo, 27.03. 2:00 7 2 14 30° NO
So, 26.03. 20:00 2 1 41 230° SW
So, 26.03. 14:00 7 2 29 280° W
So, 26.03. 8:00 13 3 46 240° SW
So, 26.03. 1:00 19 3 57 250° W
Sa, 25.03. 19:00 9 2 69 220° SW
Sa, 25.03. 13:00 25 4 47 260° W
Ortszeit Stärke Spitze Richtung
km/h Bft. km/h Grad Sektor
Mo, 27.03. 12:00 26 4 50 320° NW
Mo, 27.03. 11:50 26 4 - 320° NW
Mo, 27.03. 11:40 22 4 - 330° NW
Mo, 27.03. 11:30 26 4 50 330° NW
Mo, 27.03. 11:20 26 4 - 330° NW
Mo, 27.03. 11:10 26 4 - 340° N
Mo, 27.03. 11:00 35 5 52 340° N
Mo, 27.03. 10:30 31 5 48 330° NW
Mo, 27.03. 10:00 26 4 41 350° N
Mo, 27.03. 9:30 22 4 36 350° N
Mo, 27.03. 9:00 25 4 50 350° N
Ortszeit Untergrenze Bedeckung Gattung
total tief tief mittel hoch
Mo, 27.03. 8:00 1080 m 8/8 8/8 - - -
Mo, 27.03. 2:00 30 m 8/8 8/8 - - -
So, 26.03. 20:00 150 m 7/8 7/8 - - -
So, 26.03. 14:00 1500 m 7/8 5/8 - - -
So, 26.03. 8:00 660 m 8/8 8/8 - - -
So, 26.03. 1:00 1140 m 8/8 8/8 - - -
Sa, 25.03. 19:00 5700 m 8/8 8/8 - - -
Sa, 25.03. 13:00 1020 m 7/8 7/8 - - -
Ortszeit Bedeckungsgrad in Achtel und Wolkenuntergrenze
Mo, 27.03. 12:00 4(780m) 7(1200m) 7(5100m)
Mo, 27.03. 11:50 4(780m) 7(1200m) 7(5100m)
Mo, 27.03. 11:40 8
Mo, 27.03. 11:30 3(840m) 4(1110m) 7(4200m)
Mo, 27.03. 11:20 3(840m) 4(1110m) 7(4200m)
Mo, 27.03. 11:10 7
Mo, 27.03. 11:00 2(720m) 6(1050m) 8(4200m)
Mo, 27.03. 10:30 4(570m) 8(1020m) 8(3600m)
Mo, 27.03. 10:00 5(570m) 8(3600m) 8(4500m)
Mo, 27.03. 9:30 4(510m) 7(690m) 8(3600m)
Mo, 27.03. 9:00 6(600m) 7(720m) 8(1080m)
Ortszeit Luftdruck NN (hPa) Tendenz (hPa in 3 Std.)
Mo, 27.03. 8:00 1010 + 3,7
Mo, 27.03. 2:00 1003 + 0,5
So, 26.03. 20:00 1003 - 0,4
So, 26.03. 14:00 1004 - 1,9
So, 26.03. 8:00 1006 - 0,1
So, 26.03. 1:00 1006 - 0,7
Sa, 25.03. 19:00 1007 + 1,3
Sa, 25.03. 13:00 1006 - 0,6
Ortszeit Luftdruck NN (hPa) Tendenz (hPa in 3 Std.)
Mo, 27.03. 12:00 1013 + 2,2
Mo, 27.03. 11:50 1013 keine Meldung
Mo, 27.03. 11:40 1013 keine Meldung
Mo, 27.03. 11:30 1013 + 2,6
Mo, 27.03. 11:20 1013 keine Meldung
Mo, 27.03. 11:10 1013 keine Meldung
Mo, 27.03. 11:00 1012 + 2,7
Mo, 27.03. 10:30 1012 + 2,7
Mo, 27.03. 10:00 1012 + 3,1
Mo, 27.03. 9:30 1011 + 3,1
Mo, 27.03. 9:00 1011 + 3,0
Ortszeit Schneehöhe (cm)
Mo, 27.03. 8:00 -
Mo, 27.03. 2:00 0
So, 26.03. 20:00 0
So, 26.03. 14:00 0
So, 26.03. 8:00 0
So, 26.03. 1:00 0
Sa, 25.03. 19:00 0
Sa, 25.03. 13:00 0
Ortszeit Schneehöhe (cm)
Mo, 27.03. 12:00 0
Mo, 27.03. 11:50 0
Mo, 27.03. 11:40 -
Mo, 27.03. 11:30 0
Mo, 27.03. 11:20 0
Mo, 27.03. 11:10 -
Mo, 27.03. 11:00 0
Mo, 27.03. 10:30 0
Mo, 27.03. 10:00 -
Mo, 27.03. 9:30 -
Mo, 27.03. 9:00 -
Link zu dieser Seite / Seite empfehlen

Das Wetter in ...